Time;durP1;ratioP1;P1;durP2;ratioP2;P2;SDS_P1;SDS_P2;PMS_P1;PMS_P2;Temp;Humidity;BMP_temperature;BMP_pressure;BME280_temperature;BME280_humidity;BME280_pressure;Samples;Min_cycle;Max_cycle;Signal;HPM_P1;HPM_P2
2023/05/17 00:00:16;;;;;;;7.82;4.38;;;;;;;;;;5022486;28;20049;-68
2023/05/17 00:02:41;;;;;;;9.43;4.40;;;;;;;;;;5017897;28;20073;-68
2023/05/17 00:05:07;;;;;;;4.80;3.55;;;;;;;;;;5018267;28;20049;-68
2023/05/17 00:07:33;;;;;;;7.97;3.95;;;;;;;;;;5021773;28;20579;-68
2023/05/17 00:09:58;;;;;;;8.70;4.07;;;;;;;;;;5022598;28;20041;-68
2023/05/17 00:12:24;;;;;;;5.18;4.10;;;;;;;;;;5017083;28;20124;-67
2023/05/17 00:14:49;;;;;;;9.90;4.55;;;;;;;;;;5020041;28;20183;-68
2023/05/17 00:17:15;;;;;;;5.93;3.63;;;;;;;;;;5021721;28;20128;-68
2023/05/17 00:19:41;;;;;;;13.82;4.38;;;;;;;;;;5023070;28;20056;-69
2023/05/17 00:22:06;;;;;;;6.82;4.22;;;;;;;;;;5022642;28;20402;-68
2023/05/17 00:24:32;;;;;;;8.55;3.58;;;;;;;;;;5016573;28;20054;-67
2023/05/17 00:26:57;;;;;;;8.68;3.97;;;;;;;;;;5038301;28;20169;-68
2023/05/17 00:29:22;;;;;;;5.43;3.65;;;;;;;;;;5020935;28;20068;-68
2023/05/17 00:31:48;;;;;;;11.68;4.05;;;;;;;;;;5038200;28;20038;-68
2023/05/17 00:34:13;;;;;;;13.85;4.20;;;;;;;;;;5013486;28;20419;-68
2023/05/17 00:36:39;;;;;;;8.73;3.40;;;;;;;;;;5022930;28;20048;-68
2023/05/17 00:39:04;;;;;;;9.90;4.15;;;;;;;;;;5022840;28;20038;-68
2023/05/17 00:41:30;;;;;;;12.23;3.88;;;;;;;;;;5036478;28;20056;-68
2023/05/17 00:43:55;;;;;;;13.45;4.18;;;;;;;;;;5036968;28;20052;-70
2023/05/17 00:46:21;;;;;;;9.65;4.55;;;;;;;;;;5021727;28;20068;-68
2023/05/17 00:48:46;;;;;;;8.73;4.18;;;;;;;;;;5016937;28;20152;-69
2023/05/17 00:51:15;;;;;;;9.30;3.90;;;;;;;;;;5019037;28;20100;-68
2023/05/17 00:53:41;;;;;;;9.85;4.15;;;;;;;;;;5021935;28;20041;-68
2023/05/17 00:56:07;;;;;;;9.63;3.80;;;;;;;;;;5021398;28;20420;-68
2023/05/17 00:58:34;;;;;;;7.50;3.70;;;;;;;;;;5016301;28;20058;-68
2023/05/17 01:01:00;;;;;;;6.93;3.75;;;;;;;;;;5037925;28;20057;-69
2023/05/17 01:03:26;;;;;;;7.53;3.70;;;;;;;;;;5017469;28;20055;-68
2023/05/17 01:05:52;;;;;;;8.27;3.88;;;;;;;;;;5037401;28;20056;-67
2023/05/17 01:08:17;;;;;;;8.50;3.67;;;;;;;;;;5018698;28;20053;-68
2023/05/17 01:10:57;;;;;;;6.30;3.50;;;;;;;;;;5020770;28;20491;-68
2023/05/17 01:13:54;;;;;;;13.05;3.85;;;;;;;;;;5015675;28;20042;-68
2023/05/17 01:16:43;;;;;;;9.27;3.70;;;;;;;;;;5017178;28;20056;-67
2023/05/17 01:19:18;;;;;;;7.97;3.90;;;;;;;;;;5016700;28;20522;-68
2023/05/17 01:22:14;;;;;;;7.53;4.03;;;;;;;;;;5009583;28;20049;-68
2023/05/17 01:25:03;;;;;;;12.43;4.32;;;;;;;;;;5023276;28;20049;-68
2023/05/17 01:27:30;;;;;;;7.63;4.22;;;;;;;;;;5037283;28;20049;-69
2023/05/17 01:29:56;;;;;;;12.73;4.13;;;;;;;;;;5017868;28;20049;-72
2023/05/17 01:32:24;;;;;;;11.43;4.10;;;;;;;;;;5013931;28;20042;-68
2023/05/17 01:34:50;;;;;;;7.15;4.47;;;;;;;;;;5020792;28;20775;-68
2023/05/17 01:37:16;;;;;;;13.93;4.75;;;;;;;;;;5016681;28;20084;-68
2023/05/17 01:39:41;;;;;;;6.00;3.65;;;;;;;;;;5036953;28;20580;-68
2023/05/17 01:42:23;;;;;;;11.18;4.10;;;;;;;;;;5017712;28;20140;-68
2023/05/17 01:45:11;;;;;;;9.68;3.35;;;;;;;;;;5019771;28;20045;-68
2023/05/17 01:48:04;;;;;;;11.80;3.70;;;;;;;;;;5035548;28;20073;-68
2023/05/17 01:50:31;;;;;;;17.20;3.50;;;;;;;;;;5019312;28;20180;-69
2023/05/17 01:53:11;;;;;;;6.68;3.70;;;;;;;;;;5036485;28;20236;-68
2023/05/17 01:55:41;;;;;;;7.20;4.03;;;;;;;;;;5014845;28;20045;-68
2023/05/17 01:58:09;;;;;;;5.63;3.72;;;;;;;;;;5018717;28;20115;-68
2023/05/17 02:00:35;;;;;;;7.35;3.58;;;;;;;;;;5036134;28;20041;-68
2023/05/17 02:03:00;;;;;;;3.92;3.15;;;;;;;;;;5021107;28;20094;-68
2023/05/17 02:05:26;;;;;;;5.32;3.80;;;;;;;;;;5019456;28;20053;-67
2023/05/17 02:07:51;;;;;;;15.45;3.75;;;;;;;;;;5020315;28;20125;-68
2023/05/17 02:10:17;;;;;;;9.85;4.13;;;;;;;;;;5014861;28;20046;-68
2023/05/17 02:12:42;;;;;;;10.00;3.75;;;;;;;;;;5019764;28;20410;-67
2023/05/17 02:15:10;;;;;;;9.73;4.10;;;;;;;;;;5019327;28;20057;-68
2023/05/17 02:17:39;;;;;;;8.18;3.47;;;;;;;;;;5020200;28;20140;-68
2023/05/17 02:20:06;;;;;;;7.05;3.90;;;;;;;;;;5019464;28;20041;-67
2023/05/17 02:22:31;;;;;;;12.48;3.70;;;;;;;;;;5020367;28;20045;-68
2023/05/17 02:24:57;;;;;;;13.10;4.63;;;;;;;;;;5035710;28;20050;-68
2023/05/17 02:27:22;;;;;;;9.98;3.83;;;;;;;;;;5021071;28;20057;-68
2023/05/17 02:29:48;;;;;;;10.90;4.35;;;;;;;;;;5019934;28;20053;-67
2023/05/17 02:32:13;;;;;;;9.70;3.67;;;;;;;;;;5012017;28;20041;-68
2023/05/17 02:34:38;;;;;;;7.30;3.67;;;;;;;;;;5011833;28;20068;-68
2023/05/17 02:37:04;;;;;;;6.15;3.70;;;;;;;;;;5017557;28;20049;-68
2023/05/17 02:39:32;;;;;;;8.10;3.88;;;;;;;;;;5017261;28;20123;-68
2023/05/17 02:41:57;;;;;;;6.95;3.47;;;;;;;;;;5012388;28;20069;-68
2023/05/17 02:44:23;;;;;;;12.15;3.92;;;;;;;;;;5018604;28;20144;-68
2023/05/17 02:46:48;;;;;;;11.30;3.97;;;;;;;;;;5035760;28;20122;-68
2023/05/17 02:49:13;;;;;;;15.00;3.90;;;;;;;;;;5014037;28;20041;-68
2023/05/17 02:51:39;;;;;;;6.90;3.67;;;;;;;;;;5016482;28;20064;-68
2023/05/17 02:54:04;;;;;;;5.45;3.60;;;;;;;;;;5014199;28;20393;-68
2023/05/17 02:56:30;;;;;;;12.38;4.00;;;;;;;;;;5020182;28;20118;-68
2023/05/17 02:58:56;;;;;;;8.48;3.78;;;;;;;;;;5035812;28;20056;-68
2023/05/17 03:01:22;;;;;;;8.07;3.80;;;;;;;;;;4985026;28;20048;-68
2023/05/17 03:03:48;;;;;;;7.53;3.70;;;;;;;;;;5034512;28;20045;-68
2023/05/17 03:06:14;;;;;;;11.90;4.00;;;;;;;;;;5035296;28;20045;-68
2023/05/17 03:08:39;;;;;;;11.48;3.50;;;;;;;;;;5016548;28;20045;-68
2023/05/17 03:11:06;;;;;;;6.38;3.83;;;;;;;;;;5025335;28;20111;-68
2023/05/17 03:13:32;;;;;;;4.53;3.60;;;;;;;;;;5016307;28;20494;-68
2023/05/17 03:15:57;;;;;;;8.10;3.88;;;;;;;;;;5013181;28;20045;-68
2023/05/17 03:18:23;;;;;;;9.50;3.78;;;;;;;;;;4986503;28;20123;-68
2023/05/17 03:20:50;;;;;;;5.68;3.83;;;;;;;;;;5035419;28;20091;-68
2023/05/17 03:23:16;;;;;;;8.75;3.90;;;;;;;;;;5018480;28;20053;-68
2023/05/17 03:25:51;;;;;;;5.95;3.15;;;;;;;;;;5018101;28;20046;-67
2023/05/17 03:28:17;;;;;;;7.55;3.83;;;;;;;;;;5014752;28;20056;-68
2023/05/17 03:30:43;;;;;;;6.63;3.97;;;;;;;;;;5030954;28;20042;-68
2023/05/17 03:33:09;;;;;;;4.90;3.67;;;;;;;;;;5018674;28;20585;-67
2023/05/17 03:35:34;;;;;;;8.32;3.42;;;;;;;;;;5018728;28;20045;-68
2023/05/17 03:37:59;;;;;;;8.77;3.38;;;;;;;;;;5019411;28;20042;-68
2023/05/17 03:40:25;;;;;;;5.28;3.33;;;;;;;;;;5018290;28;20107;-68
2023/05/17 03:42:51;;;;;;;5.63;3.15;;;;;;;;;;5035183;28;20491;-68
2023/05/17 03:45:17;;;;;;;9.50;3.35;;;;;;;;;;5032983;28;20063;-68
2023/05/17 03:47:42;;;;;;;5.82;3.70;;;;;;;;;;5014828;28;20042;-68
2023/05/17 03:50:09;;;;;;;6.88;3.42;;;;;;;;;;5017774;28;20048;-68
2023/05/17 03:52:35;;;;;;;7.78;3.70;;;;;;;;;;5018837;28;20045;-68
2023/05/17 03:55:00;;;;;;;8.90;3.60;;;;;;;;;;5017678;28;21373;-68
2023/05/17 03:57:26;;;;;;;12.40;4.57;;;;;;;;;;5015811;28;20052;-68
2023/05/17 03:59:52;;;;;;;6.75;3.75;;;;;;;;;;5034863;28;20041;-67
2023/05/17 04:02:19;;;;;;;7.57;4.18;;;;;;;;;;5030866;28;20052;-68
2023/05/17 04:04:50;;;;;;;5.65;3.72;;;;;;;;;;5020147;28;20042;-68
2023/05/17 04:07:16;;;;;;;6.82;3.83;;;;;;;;;;5035213;28;20048;-68
2023/05/17 04:09:42;;;;;;;6.95;3.83;;;;;;;;;;5014377;28;20041;-68
2023/05/17 04:12:09;;;;;;;8.63;3.58;;;;;;;;;;5015120;28;20383;-68
2023/05/17 04:14:37;;;;;;;8.27;3.67;;;;;;;;;;5031937;28;20641;-68
2023/05/17 04:17:04;;;;;;;8.40;3.53;;;;;;;;;;5033006;28;20159;-68
2023/05/17 04:19:30;;;;;;;7.63;4.30;;;;;;;;;;5033335;28;20456;-68
2023/05/17 04:21:55;;;;;;;12.65;3.83;;;;;;;;;;5034908;28;20116;-68
2023/05/17 04:24:23;;;;;;;6.80;3.53;;;;;;;;;;5019575;28;20049;-68
2023/05/17 04:26:49;;;;;;;12.30;4.13;;;;;;;;;;5037632;28;20140;-68
2023/05/17 04:29:17;;;;;;;10.63;3.67;;;;;;;;;;4989969;28;20045;-68
2023/05/17 04:31:42;;;;;;;8.35;3.72;;;;;;;;;;5029133;28;20091;-68
2023/05/17 04:34:08;;;;;;;6.93;3.38;;;;;;;;;;5020000;28;20103;-68
2023/05/17 04:36:34;;;;;;;7.60;4.00;;;;;;;;;;5020324;28;20390;-68
2023/05/17 04:39:02;;;;;;;11.00;3.30;;;;;;;;;;5011720;28;20532;-68
2023/05/17 04:41:28;;;;;;;3.90;3.10;;;;;;;;;;5035478;28;20217;-68
2023/05/17 04:43:54;;;;;;;7.22;3.47;;;;;;;;;;5031111;28;20057;-68
2023/05/17 04:46:26;;;;;;;7.95;3.20;;;;;;;;;;5020076;28;20038;-68
2023/05/17 04:48:54;;;;;;;7.57;3.55;;;;;;;;;;5034766;28;20045;-68
2023/05/17 04:51:20;;;;;;;6.55;3.53;;;;;;;;;;5014960;28;20145;-68
2023/05/17 04:53:46;;;;;;;6.78;3.20;;;;;;;;;;4989382;28;20121;-68
2023/05/17 04:56:15;;;;;;;13.10;4.38;;;;;;;;;;5031444;28;20824;-67
2023/05/17 04:58:40;;;;;;;10.48;3.60;;;;;;;;;;5015286;28;20041;-68
2023/05/17 05:01:06;;;;;;;7.72;3.15;;;;;;;;;;5030742;28;20517;-67
2023/05/17 05:03:33;;;;;;;4.72;2.92;;;;;;;;;;5029235;28;20101;-68
2023/05/17 05:05:59;;;;;;;7.93;3.05;;;;;;;;;;5029782;28;20053;-68
2023/05/17 05:08:24;;;;;;;5.30;3.08;;;;;;;;;;5014960;28;20042;-67
2023/05/17 05:10:51;;;;;;;14.20;2.90;;;;;;;;;;5007290;28;20073;-68
2023/05/17 05:13:20;;;;;;;4.65;3.00;;;;;;;;;;5019668;28;20536;-68
2023/05/17 05:15:45;;;;;;;3.90;2.88;;;;;;;;;;5030740;28;20041;-67
2023/05/17 05:18:11;;;;;;;7.07;2.97;;;;;;;;;;5014076;28;20044;-68
2023/05/17 05:20:37;;;;;;;3.80;2.65;;;;;;;;;;5018969;28;20511;-67
2023/05/17 05:23:07;;;;;;;6.25;3.10;;;;;;;;;;5018249;28;20508;-68
2023/05/17 05:25:34;;;;;;;3.63;2.95;;;;;;;;;;5014436;28;20115;-68
2023/05/17 05:28:00;;;;;;;9.95;3.00;;;;;;;;;;5015746;28;20509;-68
2023/05/17 05:30:28;;;;;;;7.20;3.55;;;;;;;;;;5016196;28;20041;-68
2023/05/17 05:32:54;;;;;;;11.40;3.67;;;;;;;;;;5033398;28;20038;-68
2023/05/17 05:35:27;;;;;;;12.88;3.75;;;;;;;;;;5017639;28;20075;-68
2023/05/17 05:37:55;;;;;;;5.00;3.03;;;;;;;;;;5008831;28;20445;-67
2023/05/17 05:40:20;;;;;;;6.43;2.95;;;;;;;;;;5012941;28;20054;-68
2023/05/17 05:42:46;;;;;;;7.35;2.60;;;;;;;;;;5011215;28;20099;-68
2023/05/17 05:45:11;;;;;;;4.22;2.78;;;;;;;;;;5021154;28;20045;-68
2023/05/17 05:47:38;;;;;;;4.57;2.47;;;;;;;;;;5017944;28;20487;-67
2023/05/17 05:50:05;;;;;;;9.05;2.35;;;;;;;;;;5036331;28;20044;-68
2023/05/17 05:52:30;;;;;;;4.35;2.33;;;;;;;;;;5036931;28;20048;-68
2023/05/17 05:54:56;;;;;;;5.43;2.65;;;;;;;;;;5020935;28;20084;-68
2023/05/17 05:57:22;;;;;;;6.22;2.50;;;;;;;;;;5037049;28;20041;-68
2023/05/17 05:59:48;;;;;;;6.90;2.65;;;;;;;;;;5035177;28;20920;-67
2023/05/17 06:02:13;;;;;;;7.20;2.55;;;;;;;;;;5020777;28;20072;-69
2023/05/17 06:04:39;;;;;;;5.32;2.70;;;;;;;;;;5021174;28;20053;-67
2023/05/17 06:07:06;;;;;;;3.90;2.53;;;;;;;;;;5021315;28;20047;-67
2023/05/17 06:09:31;;;;;;;5.03;2.50;;;;;;;;;;5020288;28;20049;-69
2023/05/17 06:11:56;;;;;;;7.47;2.20;;;;;;;;;;5021184;28;20041;-69
2023/05/17 06:14:22;;;;;;;7.07;2.58;;;;;;;;;;5011074;28;20049;-67
2023/05/17 06:16:47;;;;;;;5.22;2.28;;;;;;;;;;5021181;28;20402;-68
2023/05/17 06:19:13;;;;;;;8.32;2.47;;;;;;;;;;5019979;28;20494;-68
2023/05/17 06:21:39;;;;;;;4.78;2.40;;;;;;;;;;5011042;28;20110;-67
2023/05/17 06:24:05;;;;;;;5.30;2.55;;;;;;;;;;5020242;28;20049;-68
2023/05/17 06:26:30;;;;;;;7.18;2.35;;;;;;;;;;5008185;28;20046;-68
2023/05/17 06:28:56;;;;;;;4.28;2.42;;;;;;;;;;5020987;28;20052;-68
2023/05/17 06:31:21;;;;;;;5.68;2.40;;;;;;;;;;5019752;28;20112;-68
2023/05/17 06:33:47;;;;;;;8.20;2.22;;;;;;;;;;5020641;28;20461;-68
2023/05/17 06:36:12;;;;;;;4.32;2.55;;;;;;;;;;5020131;28;20056;-68
2023/05/17 06:38:38;;;;;;;2.40;2.15;;;;;;;;;;5010608;28;20052;-68
2023/05/17 06:41:03;;;;;;;7.88;2.70;;;;;;;;;;5018113;28;20041;-67
2023/05/17 06:43:28;;;;;;;2.90;2.10;;;;;;;;;;5015596;28;20536;-67
2023/05/17 06:45:54;;;;;;;6.82;2.08;;;;;;;;;;5015514;28;20462;-68
2023/05/17 06:48:19;;;;;;;4.78;2.35;;;;;;;;;;5016915;28;20046;-68
2023/05/17 06:50:45;;;;;;;3.85;2.40;;;;;;;;;;5020436;28;20045;-67
2023/05/17 06:53:10;;;;;;;8.15;2.17;;;;;;;;;;5016346;28;20541;-68
2023/05/17 06:55:36;;;;;;;5.88;2.13;;;;;;;;;;5011968;28;20038;-67
2023/05/17 06:58:02;;;;;;;2.90;2.40;;;;;;;;;;5012433;28;20048;-68
2023/05/17 07:00:27;;;;;;;4.60;2.35;;;;;;;;;;5018130;28;20041;-67
2023/05/17 07:02:53;;;;;;;5.05;2.50;;;;;;;;;;5020446;28;20050;-68
2023/05/17 07:05:18;;;;;;;5.05;2.13;;;;;;;;;;5016048;28;20067;-68
2023/05/17 07:07:43;;;;;;;5.25;2.30;;;;;;;;;;5019240;28;20099;-68
2023/05/17 07:10:09;;;;;;;3.38;2.22;;;;;;;;;;5019850;28;20569;-68
2023/05/17 07:12:34;;;;;;;7.18;2.00;;;;;;;;;;5020225;28;20049;-68
2023/05/17 07:15:00;;;;;;;4.28;2.15;;;;;;;;;;5020119;28;20055;-68
2023/05/17 07:17:25;;;;;;;4.68;1.70;;;;;;;;;;5019488;28;20049;-68
2023/05/17 07:19:51;;;;;;;4.15;1.70;;;;;;;;;;5013410;28;20513;-67
2023/05/17 07:22:17;;;;;;;3.90;2.42;;;;;;;;;;5019906;28;20854;-68
2023/05/17 07:24:44;;;;;;;4.85;2.17;;;;;;;;;;5020442;28;20050;-67
2023/05/17 07:27:09;;;;;;;2.03;1.83;;;;;;;;;;5017670;28;20099;-67
2023/05/17 07:29:35;;;;;;;3.67;1.98;;;;;;;;;;5020079;28;20049;-67
2023/05/17 07:32:00;;;;;;;3.97;2.10;;;;;;;;;;5019409;28;20146;-68
2023/05/17 07:34:26;;;;;;;3.45;1.80;;;;;;;;;;5020016;28;20057;-67
2023/05/17 07:36:51;;;;;;;5.80;2.55;;;;;;;;;;5019858;28;20037;-67
2023/05/17 07:39:17;;;;;;;4.90;2.22;;;;;;;;;;5021934;28;20116;-67
2023/05/17 07:41:42;;;;;;;3.40;2.15;;;;;;;;;;5023857;28;20053;-68
2023/05/17 07:44:07;;;;;;;5.80;2.08;;;;;;;;;;5021220;28;20045;-67
2023/05/17 07:46:33;;;;;;;5.65;2.17;;;;;;;;;;5021343;28;20414;-67
2023/05/17 07:48:58;;;;;;;10.18;2.25;;;;;;;;;;5018717;28;20050;-67
2023/05/17 07:51:24;;;;;;;7.05;2.28;;;;;;;;;;5020578;28;20050;-67
2023/05/17 07:53:49;;;;;;;5.43;1.98;;;;;;;;;;5023449;28;20045;-68
2023/05/17 07:56:14;;;;;;;7.25;2.30;;;;;;;;;;5018096;28;20041;-70
2023/05/17 07:58:40;;;;;;;5.20;1.90;;;;;;;;;;5023868;28;20132;-67
2023/05/17 08:01:05;;;;;;;2.42;1.73;;;;;;;;;;5021611;28;20582;-69
2023/05/17 08:03:31;;;;;;;4.72;1.90;;;;;;;;;;5023288;28;20460;-67
2023/05/17 08:05:56;;;;;;;5.78;1.67;;;;;;;;;;5023630;28;20049;-67
2023/05/17 08:08:22;;;;;;;5.30;1.95;;;;;;;;;;5022729;28;20041;-70
2023/05/17 08:10:48;;;;;;;4.25;2.00;;;;;;;;;;5017652;28;20050;-67
2023/05/17 08:13:14;;;;;;;5.93;2.00;;;;;;;;;;5018928;28;20053;-70
2023/05/17 08:15:40;;;;;;;6.18;2.00;;;;;;;;;;5023588;28;20045;-69
2023/05/17 08:18:06;;;;;;;3.45;1.85;;;;;;;;;;5023005;28;20556;-70
2023/05/17 08:20:31;;;;;;;5.35;1.70;;;;;;;;;;5023381;28;20128;-67
2023/05/17 08:22:57;;;;;;;9.65;1.80;;;;;;;;;;5022532;28;20045;-67
2023/05/17 08:25:22;;;;;;;2.67;1.60;;;;;;;;;;5023012;28;20652;-67
2023/05/17 08:27:47;;;;;;;4.68;1.90;;;;;;;;;;5023383;28;20569;-67
2023/05/17 08:30:13;;;;;;;3.25;1.55;;;;;;;;;;5022671;28;20045;-67
2023/05/17 08:32:38;;;;;;;5.07;1.77;;;;;;;;;;5020753;28;20877;-67
2023/05/17 08:35:04;;;;;;;4.80;1.67;;;;;;;;;;5014976;28;20984;-70
2023/05/17 08:37:30;;;;;;;2.45;1.88;;;;;;;;;;5015584;28;20799;-67
2023/05/17 08:39:55;;;;;;;4.35;2.05;;;;;;;;;;5022718;28;20041;-67
2023/05/17 08:42:24;;;;;;;2.70;1.48;;;;;;;;;;5014481;28;20054;-67
2023/05/17 08:44:50;;;;;;;5.35;1.52;;;;;;;;;;5020580;28;20056;-68
2023/05/17 08:47:24;;;;;;;3.78;1.80;;;;;;;;;;5022898;28;20037;-67
2023/05/17 08:49:53;;;;;;;6.60;2.05;;;;;;;;;;5022344;28;20521;-69
2023/05/17 08:52:20;;;;;;;6.90;2.25;;;;;;;;;;5020276;28;20053;-69
2023/05/17 08:54:47;;;;;;;5.22;1.95;;;;;;;;;;5021177;28;20521;-69
2023/05/17 08:57:14;;;;;;;5.45;2.10;;;;;;;;;;5019765;28;20037;-69
2023/05/17 08:59:40;;;;;;;5.65;2.17;;;;;;;;;;5022386;28;20057;-67
2023/05/17 09:02:06;;;;;;;3.50;2.15;;;;;;;;;;5021075;28;20049;-70
2023/05/17 09:04:32;;;;;;;5.70;2.60;;;;;;;;;;5022236;28;20061;-68
2023/05/17 09:06:57;;;;;;;6.07;2.20;;;;;;;;;;5012354;28;20067;-68
2023/05/17 09:09:24;;;;;;;3.95;1.83;;;;;;;;;;5022362;28;20057;-68
2023/05/17 09:11:50;;;;;;;2.55;2.03;;;;;;;;;;5022293;28;20061;-67
2023/05/17 09:14:18;;;;;;;7.55;2.40;;;;;;;;;;5021987;28;20037;-67
2023/05/17 09:16:44;;;;;;;5.25;2.20;;;;;;;;;;5021732;28;20045;-68
2023/05/17 09:19:15;;;;;;;5.65;2.17;;;;;;;;;;5015972;28;20053;-68
2023/05/17 09:21:47;;;;;;;7.85;2.33;;;;;;;;;;5021975;28;20092;-67
2023/05/17 09:24:13;;;;;;;;;;;;;;;;;;5021936;28;20046;-68
2023/05/17 09:26:39;;;;;;;7.07;1.80;;;;;;;;;;5022299;28;19944;-68
2023/05/17 09:29:12;;;;;;;5.82;2.13;;;;;;;;;;5012224;28;20091;-68
2023/05/17 09:31:38;;;;;;;7.35;1.90;;;;;;;;;;5022036;28;20106;-67
2023/05/17 09:34:05;;;;;;;3.72;1.80;;;;;;;;;;5021182;28;20521;-68
2023/05/17 09:36:31;;;;;;;4.82;2.17;;;;;;;;;;5021848;28;20525;-68
2023/05/17 09:39:01;;;;;;;9.30;2.30;;;;;;;;;;5014756;28;20049;-68
2023/05/17 09:41:29;;;;;;;3.15;1.83;;;;;;;;;;5015022;28;20108;-68
2023/05/17 09:43:59;;;;;;;4.53;1.90;;;;;;;;;;5017941;28;21270;-68
2023/05/17 09:46:25;;;;;;;5.47;1.83;;;;;;;;;;5020909;28;20060;-67
2023/05/17 09:48:55;;;;;;;6.70;1.95;;;;;;;;;;5022032;28;20976;-68
2023/05/17 09:51:40;;;;;;;5.40;1.80;;;;;;;;;;5020654;28;20045;-68
2023/05/17 09:54:06;;;;;;;4.45;1.58;;;;;;;;;;5016927;28;20056;-68
2023/05/17 09:56:33;;;;;;;3.08;1.83;;;;;;;;;;5015868;28;20053;-68
2023/05/17 09:59:03;;;;;;;7.38;2.05;;;;;;;;;;5017449;28;20068;-68
2023/05/17 10:01:30;;;;;;;7.28;2.28;;;;;;;;;;5015733;28;20648;-68
2023/05/17 10:04:02;;;;;;;8.10;1.95;;;;;;;;;;5019939;28;20051;-68
2023/05/17 10:06:29;;;;;;;5.97;2.05;;;;;;;;;;5011566;28;20037;-68
2023/05/17 10:08:57;;;;;;;6.78;2.03;;;;;;;;;;5012525;28;20442;-68
2023/05/17 10:11:32;;;;;;;2.78;1.83;;;;;;;;;;5021167;28;20066;-67
2023/05/17 10:14:08;;;;;;;6.70;2.28;;;;;;;;;;5021116;28;20037;-67
2023/05/17 10:16:36;;;;;;;6.65;2.50;;;;;;;;;;5019933;28;20122;-67
2023/05/17 10:19:02;;;;;;;4.53;2.00;;;;;;;;;;5018877;28;20051;-67
2023/05/17 10:21:31;;;;;;;2.35;1.70;;;;;;;;;;5033933;28;20414;-67
2023/05/17 10:24:07;;;;;;;6.20;2.10;;;;;;;;;;5012130;28;20042;-68
2023/05/17 10:26:32;;;;;;;3.28;2.13;;;;;;;;;;5020945;28;20103;-67
2023/05/17 10:29:00;;;;;;;4.53;2.25;;;;;;;;;;5021337;28;20132;-68
2023/05/17 10:31:29;;;;;;;4.80;2.28;;;;;;;;;;5021020;28;20152;-67
2023/05/17 10:33:55;;;;;;;3.88;2.13;;;;;;;;;;5019803;28;20046;-67
2023/05/17 10:36:23;;;;;;;4.45;1.98;;;;;;;;;;5020078;28;20056;-67
2023/05/17 10:38:50;;;;;;;6.55;2.00;;;;;;;;;;5016693;28;20056;-68
2023/05/17 10:41:17;;;;;;;5.28;1.85;;;;;;;;;;5020781;28;20091;-68
2023/05/17 10:43:43;;;;;;;7.32;2.20;;;;;;;;;;5016121;28;20148;-67
2023/05/17 10:46:20;;;;;;;3.65;1.55;;;;;;;;;;5008705;28;20045;-67
2023/05/17 10:48:53;;;;;;;5.47;1.95;;;;;;;;;;5005366;28;20038;-67
2023/05/17 10:51:25;;;;;;;8.52;1.90;;;;;;;;;;5017635;28;20060;-67
2023/05/17 10:54:12;;;;;;;4.70;1.90;;;;;;;;;;5018327;28;20052;-67
2023/05/17 10:56:41;;;;;;;3.67;1.75;;;;;;;;;;5027898;28;20160;-67
2023/05/17 10:59:13;;;;;;;10.27;1.98;;;;;;;;;;5018466;28;20045;-67
2023/05/17 11:02:05;;;;;;;2.28;1.60;;;;;;;;;;5017876;28;20196;-67
2023/05/17 11:04:43;;;;;;;3.85;2.08;;;;;;;;;;5016492;28;20054;-67
2023/05/17 11:07:24;;;;;;;5.15;1.95;;;;;;;;;;5010659;28;20033;-67
2023/05/17 11:09:54;;;;;;;6.32;1.77;;;;;;;;;;5013915;28;20041;-67
2023/05/17 11:12:36;;;;;;;6.00;2.05;;;;;;;;;;5016902;28;20041;-67
2023/05/17 11:15:06;;;;;;;3.72;1.75;;;;;;;;;;5016161;28;20085;-67
2023/05/17 11:18:06;;;;;;;4.93;1.77;;;;;;;;;;5016296;28;20431;-68
2023/05/17 11:20:33;;;;;;;6.18;2.13;;;;;;;;;;5012456;28;20048;-67
2023/05/17 11:23:04;;;;;;;4.93;1.80;;;;;;;;;;5018385;28;20068;-68
2023/05/17 11:25:31;;;;;;;6.65;2.08;;;;;;;;;;5018734;28;20053;-68
2023/05/17 11:27:57;;;;;;;5.40;1.90;;;;;;;;;;5018352;28;20141;-67
2023/05/17 11:30:25;;;;;;;7.45;2.20;;;;;;;;;;5016219;28;20129;-70
2023/05/17 11:32:53;;;;;;;4.85;1.90;;;;;;;;;;5010289;28;20058;-68
2023/05/17 11:35:22;;;;;;;4.88;1.80;;;;;;;;;;5011403;28;20041;-68
2023/05/17 11:37:52;;;;;;;4.30;1.70;;;;;;;;;;5014378;28;20072;-68
2023/05/17 11:40:26;;;;;;;6.55;2.00;;;;;;;;;;5014734;28;20056;-68
2023/05/17 11:43:09;;;;;;;8.65;2.40;;;;;;;;;;5019660;28;20076;-67
2023/05/17 11:45:42;;;;;;;3.80;2.20;;;;;;;;;;5016264;28;20049;-67
2023/05/17 11:48:08;;;;;;;8.82;2.30;;;;;;;;;;5018031;28;20483;-67
2023/05/17 11:50:35;;;;;;;5.53;2.28;;;;;;;;;;5016447;28;20081;-67
2023/05/17 11:53:05;;;;;;;4.18;2.17;;;;;;;;;;5014624;28;20038;-68
2023/05/17 11:55:32;;;;;;;6.22;2.33;;;;;;;;;;5010222;28;20107;-68
2023/05/17 11:57:57;;;;;;;3.03;2.33;;;;;;;;;;5009675;28;20133;-67
2023/05/17 12:00:26;;;;;;;5.82;2.15;;;;;;;;;;5012555;28;20057;-67
2023/05/17 12:02:51;;;;;;;8.45;2.58;;;;;;;;;;5014826;28;20489;-67
2023/05/17 12:05:21;;;;;;;4.93;2.60;;;;;;;;;;5018685;28;20199;-67
2023/05/17 12:07:49;;;;;;;8.90;2.40;;;;;;;;;;5015150;28;20111;-67
2023/05/17 12:10:14;;;;;;;2.47;2.13;;;;;;;;;;5016899;28;20521;-69
2023/05/17 12:12:40;;;;;;;3.67;2.28;;;;;;;;;;5017082;28;20057;-67
2023/05/17 12:15:07;;;;;;;5.75;2.38;;;;;;;;;;5018245;28;20102;-67
2023/05/17 12:17:41;;;;;;;3.03;2.00;;;;;;;;;;5013986;28;20056;-67
2023/05/17 12:20:08;;;;;;;8.00;2.30;;;;;;;;;;5016625;28;20048;-67
2023/05/17 12:22:33;;;;;;;6.55;2.28;;;;;;;;;;5016893;28;20491;-69
2023/05/17 12:24:59;;;;;;;10.93;2.22;;;;;;;;;;5018560;28;20084;-68
2023/05/17 12:27:25;;;;;;;4.45;2.10;;;;;;;;;;5022107;28;20498;-69
2023/05/17 12:29:52;;;;;;;5.03;2.63;;;;;;;;;;5022719;28;20060;-69
2023/05/17 12:32:19;;;;;;;5.00;2.30;;;;;;;;;;5012911;28;20041;-68
2023/05/17 12:34:45;;;;;;;4.45;2.95;;;;;;;;;;5017607;28;20049;-68
2023/05/17 12:37:12;;;;;;;7.30;2.97;;;;;;;;;;5018330;28;20111;-69
2023/05/17 12:39:38;;;;;;;5.25;2.63;;;;;;;;;;5014283;28;20055;-68
2023/05/17 12:42:04;;;;;;;8.30;2.53;;;;;;;;;;5020384;28;20068;-68
2023/05/17 12:44:31;;;;;;;7.95;2.70;;;;;;;;;;5016082;28;20103;-68
2023/05/17 12:47:00;;;;;;;9.40;2.78;;;;;;;;;;5014713;28;20033;-68
2023/05/17 12:49:26;;;;;;;8.32;3.33;;;;;;;;;;5016617;28;20041;-68
2023/05/17 12:51:51;;;;;;;5.63;2.55;;;;;;;;;;5014084;28;20455;-69
2023/05/17 12:54:23;;;;;;;6.85;2.95;;;;;;;;;;5009139;28;20569;-68
2023/05/17 12:56:48;;;;;;;5.60;2.83;;;;;;;;;;5018356;28;20045;-69
2023/05/17 12:59:19;;;;;;;9.45;2.63;;;;;;;;;;5020911;28;20061;-69
2023/05/17 13:01:50;;;;;;;4.67;2.53;;;;;;;;;;5016781;28;20049;-68
2023/05/17 13:04:17;;;;;;;9.13;3.08;;;;;;;;;;5019902;28;20055;-69
2023/05/17 13:06:50;;;;;;;4.85;2.53;;;;;;;;;;5009688;28;20132;-69
2023/05/17 13:09:18;;;;;;;6.35;3.00;;;;;;;;;;5012502;28;20124;-69
2023/05/17 13:11:53;;;;;;;8.43;2.50;;;;;;;;;;5017206;28;20045;-69
2023/05/17 13:14:41;;;;;;;4.85;2.30;;;;;;;;;;5012932;28;20048;-69
2023/05/17 13:17:08;;;;;;;5.38;2.42;;;;;;;;;;5021296;28;20403;-67
2023/05/17 13:19:34;;;;;;;7.88;2.55;;;;;;;;;;5012626;28;20049;-67
2023/05/17 13:22:00;;;;;;;4.18;2.38;;;;;;;;;;5017887;28;20041;-67
2023/05/17 13:24:29;;;;;;;6.47;2.78;;;;;;;;;;5021288;28;20049;-68
2023/05/17 13:26:54;;;;;;;9.20;2.42;;;;;;;;;;5018083;28;20080;-67
2023/05/17 13:29:20;;;;;;;5.05;2.42;;;;;;;;;;5020732;28;20187;-67
2023/05/17 13:31:46;;;;;;;4.13;2.70;;;;;;;;;;5014864;28;20051;-67
2023/05/17 13:34:12;;;;;;;7.40;3.70;;;;;;;;;;5016822;28;20045;-67
2023/05/17 13:36:37;;;;;;;6.30;2.53;;;;;;;;;;5013674;28;20108;-68
2023/05/17 13:39:03;;;;;;;9.93;3.05;;;;;;;;;;5021705;28;20056;-69
2023/05/17 13:41:29;;;;;;;3.88;2.50;;;;;;;;;;5011773;28;20060;-69
2023/05/17 13:43:56;;;;;;;3.80;2.35;;;;;;;;;;5021164;28;20537;-69
2023/05/17 13:46:21;;;;;;;8.93;2.67;;;;;;;;;;5021036;28;20077;-67
2023/05/17 13:48:47;;;;;;;4.40;3.00;;;;;;;;;;5019066;28;20081;-68
2023/05/17 13:51:12;;;;;;;6.25;2.50;;;;;;;;;;5017237;28;20045;-69
2023/05/17 13:53:38;;;;;;;5.85;2.50;;;;;;;;;;5023580;28;20410;-69
2023/05/17 13:56:04;;;;;;;7.15;2.10;;;;;;;;;;5019122;28;20856;-69
2023/05/17 13:58:29;;;;;;;4.95;2.33;;;;;;;;;;5019607;28;20430;-69
2023/05/17 14:00:55;;;;;;;5.68;2.38;;;;;;;;;;5018510;28;20506;-69
2023/05/17 14:03:20;;;;;;;4.60;2.25;;;;;;;;;;5020164;28;20057;-69
2023/05/17 14:05:49;;;;;;;5.10;2.10;;;;;;;;;;5018538;28;20520;-69
2023/05/17 14:08:15;;;;;;;5.43;2.13;;;;;;;;;;5020516;28;20037;-69
2023/05/17 14:10:41;;;;;;;5.60;2.67;;;;;;;;;;5021515;28;20064;-69
2023/05/17 14:13:07;;;;;;;6.13;2.15;;;;;;;;;;5020914;28;20049;-69
2023/05/17 14:15:36;;;;;;;5.43;2.45;;;;;;;;;;5009157;28;20132;-69
2023/05/17 14:18:06;;;;;;;4.80;2.13;;;;;;;;;;5020846;28;20042;-72
2023/05/17 14:20:32;;;;;;;4.68;2.20;;;;;;;;;;5020546;28;20053;-69
2023/05/17 14:22:58;;;;;;;7.47;2.10;;;;;;;;;;5014125;28;20037;-69
2023/05/17 14:25:24;;;;;;;7.68;1.90;;;;;;;;;;5020269;28;20072;-69
2023/05/17 14:27:50;;;;;;;3.60;2.00;;;;;;;;;;5018616;28;20041;-69
2023/05/17 14:30:15;;;;;;;3.45;1.73;;;;;;;;;;5008707;28;20132;-69
2023/05/17 14:32:41;;;;;;;4.38;1.80;;;;;;;;;;5019883;28;20108;-69
2023/05/17 14:35:07;;;;;;;6.57;1.80;;;;;;;;;;5011064;28;20148;-69
2023/05/17 14:37:33;;;;;;;5.30;2.05;;;;;;;;;;5033442;28;20506;-70
2023/05/17 14:39:59;;;;;;;4.93;1.95;;;;;;;;;;5019050;28;20083;-69
2023/05/17 14:42:25;;;;;;;3.47;1.98;;;;;;;;;;5012774;28;20053;-70
2023/05/17 14:44:51;;;;;;;6.30;2.10;;;;;;;;;;5009011;28;20489;-69